sensor_id;sensor_type;location;lat;lon;timestamp;temperature;humidity
22364;DHT22;11349;53.412;-1.328;2022-11-20T00:00:38;7.10;99.90
22364;DHT22;11349;53.412;-1.328;2022-11-20T00:03:03;7.10;99.90
22364;DHT22;11349;53.412;-1.328;2022-11-20T00:05:32;7.10;99.90
22364;DHT22;11349;53.412;-1.328;2022-11-20T00:07:58;7.10;99.90
22364;DHT22;11349;53.412;-1.328;2022-11-20T00:10:23;7.10;99.90
22364;DHT22;11349;53.412;-1.328;2022-11-20T00:12:49;7.00;99.90
22364;DHT22;11349;53.412;-1.328;2022-11-20T00:15:18;7.10;99.90
22364;DHT22;11349;53.412;-1.328;2022-11-20T00:17:43;7.00;99.90
22364;DHT22;11349;53.412;-1.328;2022-11-20T00:20:10;7.00;99.90
22364;DHT22;11349;53.412;-1.328;2022-11-20T00:22:36;7.00;99.90
22364;DHT22;11349;53.412;-1.328;2022-11-20T00:25:01;7.00;99.90
22364;DHT22;11349;53.412;-1.328;2022-11-20T00:27:27;7.10;99.90
22364;DHT22;11349;53.412;-1.328;2022-11-20T00:29:53;7.00;99.90
22364;DHT22;11349;53.412;-1.328;2022-11-20T00:32:19;7.00;99.90
22364;DHT22;11349;53.412;-1.328;2022-11-20T00:34:44;7.20;99.90
22364;DHT22;11349;53.412;-1.328;2022-11-20T00:37:10;7.20;99.90
22364;DHT22;11349;53.412;-1.328;2022-11-20T00:39:36;7.20;99.90
22364;DHT22;11349;53.412;-1.328;2022-11-20T00:42:01;7.20;99.90
22364;DHT22;11349;53.412;-1.328;2022-11-20T00:44:27;7.30;99.90
22364;DHT22;11349;53.412;-1.328;2022-11-20T00:46:53;7.10;99.90
22364;DHT22;11349;53.412;-1.328;2022-11-20T00:49:18;7.10;99.90
22364;DHT22;11349;53.412;-1.328;2022-11-20T00:51:44;7.10;99.90
22364;DHT22;11349;53.412;-1.328;2022-11-20T00:54:10;7.00;99.90
22364;DHT22;11349;53.412;-1.328;2022-11-20T00:56:35;7.00;99.90
22364;DHT22;11349;53.412;-1.328;2022-11-20T00:59:01;7.00;99.90
22364;DHT22;11349;53.412;-1.328;2022-11-20T01:01:27;7.00;99.90
22364;DHT22;11349;53.412;-1.328;2022-11-20T01:03:57;7.00;99.90
22364;DHT22;11349;53.412;-1.328;2022-11-20T01:06:28;7.00;99.90
22364;DHT22;11349;53.412;-1.328;2022-11-20T01:08:56;7.00;99.90
22364;DHT22;11349;53.412;-1.328;2022-11-20T01:11:25;7.00;99.90
22364;DHT22;11349;53.412;-1.328;2022-11-20T01:13:52;7.10;99.90
22364;DHT22;11349;53.412;-1.328;2022-11-20T01:16:24;7.00;99.90
22364;DHT22;11349;53.412;-1.328;2022-11-20T01:18:52;7.20;99.90
22364;DHT22;11349;53.412;-1.328;2022-11-20T01:21:20;7.00;99.90
22364;DHT22;11349;53.412;-1.328;2022-11-20T01:23:47;7.10;99.90
22364;DHT22;11349;53.412;-1.328;2022-11-20T01:26:17;7.00;99.90
22364;DHT22;11349;53.412;-1.328;2022-11-20T01:28:43;7.10;99.90
22364;DHT22;11349;53.412;-1.328;2022-11-20T01:31:15;7.00;99.90
22364;DHT22;11349;53.412;-1.328;2022-11-20T01:33:41;6.90;99.90
22364;DHT22;11349;53.412;-1.328;2022-11-20T01:36:08;7.00;99.90
22364;DHT22;11349;53.412;-1.328;2022-11-20T01:38:34;7.10;99.90
22364;DHT22;11349;53.412;-1.328;2022-11-20T01:41:00;6.90;99.90
22364;DHT22;11349;53.412;-1.328;2022-11-20T01:43:26;6.90;99.90
22364;DHT22;11349;53.412;-1.328;2022-11-20T01:48:51;7.00;99.90
22364;DHT22;11349;53.412;-1.328;2022-11-20T01:51:32;7.00;99.90
22364;DHT22;11349;53.412;-1.328;2022-11-20T01:54:02;6.90;99.90
22364;DHT22;11349;53.412;-1.328;2022-11-20T01:56:31;7.00;99.90
22364;DHT22;11349;53.412;-1.328;2022-11-20T01:59:02;7.00;99.90
22364;DHT22;11349;53.412;-1.328;2022-11-20T02:01:29;6.90;99.90
22364;DHT22;11349;53.412;-1.328;2022-11-20T02:03:56;7.00;99.90
22364;DHT22;11349;53.412;-1.328;2022-11-20T02:06:28;7.10;99.90
22364;DHT22;11349;53.412;-1.328;2022-11-20T02:08:55;7.00;99.90
22364;DHT22;11349;53.412;-1.328;2022-11-20T02:11:21;6.90;99.90
22364;DHT22;11349;53.412;-1.328;2022-11-20T02:13:48;7.00;99.90
22364;DHT22;11349;53.412;-1.328;2022-11-20T02:16:26;7.00;99.90
22364;DHT22;11349;53.412;-1.328;2022-11-20T02:18:55;7.20;99.90
22364;DHT22;11349;53.412;-1.328;2022-11-20T02:24:15;7.10;99.90
22364;DHT22;11349;53.412;-1.328;2022-11-20T02:26:54;7.10;99.90
22364;DHT22;11349;53.412;-1.328;2022-11-20T02:29:40;7.30;99.90
22364;DHT22;11349;53.412;-1.328;2022-11-20T02:32:50;7.40;99.90
22364;DHT22;11349;53.412;-1.328;2022-11-20T02:37:45;7.10;99.90
22364;DHT22;11349;53.412;-1.328;2022-11-20T02:40:12;7.20;99.90
22364;DHT22;11349;53.412;-1.328;2022-11-20T02:42:38;7.20;99.90
22364;DHT22;11349;53.412;-1.328;2022-11-20T02:45:05;7.20;99.90
22364;DHT22;11349;53.412;-1.328;2022-11-20T02:47:31;7.10;99.90
22364;DHT22;11349;53.412;-1.328;2022-11-20T02:49:57;7.30;99.90
22364;DHT22;11349;53.412;-1.328;2022-11-20T02:52:23;7.10;99.90
22364;DHT22;11349;53.412;-1.328;2022-11-20T02:54:49;7.10;99.90
22364;DHT22;11349;53.412;-1.328;2022-11-20T02:57:14;7.20;99.90
22364;DHT22;11349;53.412;-1.328;2022-11-20T02:59:40;7.10;99.90
22364;DHT22;11349;53.412;-1.328;2022-11-20T03:02:06;6.90;99.90
22364;DHT22;11349;53.412;-1.328;2022-11-20T03:04:32;6.90;99.90
22364;DHT22;11349;53.412;-1.328;2022-11-20T03:06:57;6.80;99.90
22364;DHT22;11349;53.412;-1.328;2022-11-20T03:09:23;6.80;99.90
22364;DHT22;11349;53.412;-1.328;2022-11-20T03:11:49;7.00;99.90
22364;DHT22;11349;53.412;-1.328;2022-11-20T03:14:14;7.20;99.90
22364;DHT22;11349;53.412;-1.328;2022-11-20T03:16:40;7.30;99.90
22364;DHT22;11349;53.412;-1.328;2022-11-20T03:19:06;7.70;99.90
22364;DHT22;11349;53.412;-1.328;2022-11-20T03:21:35;7.20;99.90
22364;DHT22;11349;53.412;-1.328;2022-11-20T03:24:01;7.30;99.90
22364;DHT22;11349;53.412;-1.328;2022-11-20T03:26:28;7.30;99.90
22364;DHT22;11349;53.412;-1.328;2022-11-20T03:28:58;7.30;99.90
22364;DHT22;11349;53.412;-1.328;2022-11-20T03:31:30;7.20;99.90
22364;DHT22;11349;53.412;-1.328;2022-11-20T03:33:57;7.30;99.90
22364;DHT22;11349;53.412;-1.328;2022-11-20T03:36:23;7.20;99.90
22364;DHT22;11349;53.412;-1.328;2022-11-20T03:38:49;7.10;99.90
22364;DHT22;11349;53.412;-1.328;2022-11-20T03:41:20;7.00;99.90
22364;DHT22;11349;53.412;-1.328;2022-11-20T03:43:54;7.00;99.90
22364;DHT22;11349;53.412;-1.328;2022-11-20T03:46:21;7.10;99.90
22364;DHT22;11349;53.412;-1.328;2022-11-20T03:48:47;7.30;99.90
22364;DHT22;11349;53.412;-1.328;2022-11-20T03:51:22;7.20;99.90
22364;DHT22;11349;53.412;-1.328;2022-11-20T03:53:49;7.00;99.90
22364;DHT22;11349;53.412;-1.328;2022-11-20T03:56:17;7.10;99.90
22364;DHT22;11349;53.412;-1.328;2022-11-20T03:58:43;7.00;99.90
22364;DHT22;11349;53.412;-1.328;2022-11-20T04:01:12;7.00;99.90
22364;DHT22;11349;53.412;-1.328;2022-11-20T04:03:39;7.00;99.90
22364;DHT22;11349;53.412;-1.328;2022-11-20T04:06:12;7.00;99.90
22364;DHT22;11349;53.412;-1.328;2022-11-20T04:08:39;7.00;99.90
22364;DHT22;11349;53.412;-1.328;2022-11-20T04:11:16;7.00;99.90
22364;DHT22;11349;53.412;-1.328;2022-11-20T04:13:46;6.90;99.90
22364;DHT22;11349;53.412;-1.328;2022-11-20T04:16:12;6.90;99.90
22364;DHT22;11349;53.412;-1.328;2022-11-20T04:18:38;6.80;99.90
22364;DHT22;11349;53.412;-1.328;2022-11-20T04:21:04;6.90;99.90
22364;DHT22;11349;53.412;-1.328;2022-11-20T04:23:31;7.00;99.90
22364;DHT22;11349;53.412;-1.328;2022-11-20T04:28:28;7.00;99.90
22364;DHT22;11349;53.412;-1.328;2022-11-20T04:30:54;7.20;99.90
22364;DHT22;11349;53.412;-1.328;2022-11-20T04:33:20;7.00;99.90
22364;DHT22;11349;53.412;-1.328;2022-11-20T04:35:47;7.00;99.90
22364;DHT22;11349;53.412;-1.328;2022-11-20T04:38:13;6.90;99.90
22364;DHT22;11349;53.412;-1.328;2022-11-20T04:40:38;6.90;99.90
22364;DHT22;11349;53.412;-1.328;2022-11-20T04:43:04;7.00;99.90
22364;DHT22;11349;53.412;-1.328;2022-11-20T04:45:30;6.90;99.90
22364;DHT22;11349;53.412;-1.328;2022-11-20T04:47:55;7.00;99.90
22364;DHT22;11349;53.412;-1.328;2022-11-20T04:50:21;7.10;99.90
22364;DHT22;11349;53.412;-1.328;2022-11-20T04:52:47;6.90;99.90
22364;DHT22;11349;53.412;-1.328;2022-11-20T04:55:12;6.90;99.90
22364;DHT22;11349;53.412;-1.328;2022-11-20T04:57:38;7.00;99.90
22364;DHT22;11349;53.412;-1.328;2022-11-20T05:00:05;7.20;99.90
22364;DHT22;11349;53.412;-1.328;2022-11-20T05:02:31;7.60;99.90
22364;DHT22;11349;53.412;-1.328;2022-11-20T05:04:57;7.40;99.90
22364;DHT22;11349;53.412;-1.328;2022-11-20T05:07:23;7.30;99.90
22364;DHT22;11349;53.412;-1.328;2022-11-20T05:09:48;7.20;99.90
22364;DHT22;11349;53.412;-1.328;2022-11-20T05:12:14;7.30;99.90
22364;DHT22;11349;53.412;-1.328;2022-11-20T05:14:40;7.30;99.90
22364;DHT22;11349;53.412;-1.328;2022-11-20T05:17:05;7.30;99.90
22364;DHT22;11349;53.412;-1.328;2022-11-20T05:19:31;7.70;99.90
22364;DHT22;11349;53.412;-1.328;2022-11-20T05:21:57;8.00;99.90
22364;DHT22;11349;53.412;-1.328;2022-11-20T05:24:22;8.10;99.90
22364;DHT22;11349;53.412;-1.328;2022-11-20T05:26:48;7.80;99.90
22364;DHT22;11349;53.412;-1.328;2022-11-20T05:29:14;7.60;99.90
22364;DHT22;11349;53.412;-1.328;2022-11-20T05:31:40;7.60;99.90
22364;DHT22;11349;53.412;-1.328;2022-11-20T05:34:06;7.80;99.90
22364;DHT22;11349;53.412;-1.328;2022-11-20T05:36:32;7.80;99.90
22364;DHT22;11349;53.412;-1.328;2022-11-20T05:38:58;7.70;99.90
22364;DHT22;11349;53.412;-1.328;2022-11-20T05:41:24;7.80;99.90
22364;DHT22;11349;53.412;-1.328;2022-11-20T05:43:50;7.90;99.90
22364;DHT22;11349;53.412;-1.328;2022-11-20T05:46:19;7.70;99.90
22364;DHT22;11349;53.412;-1.328;2022-11-20T05:48:46;7.90;99.90
22364;DHT22;11349;53.412;-1.328;2022-11-20T05:51:14;7.70;99.90
22364;DHT22;11349;53.412;-1.328;2022-11-20T05:53:40;8.00;99.90
22364;DHT22;11349;53.412;-1.328;2022-11-20T05:56:09;7.90;99.90
22364;DHT22;11349;53.412;-1.328;2022-11-20T05:58:38;8.10;99.90
22364;DHT22;11349;53.412;-1.328;2022-11-20T06:01:09;8.20;99.90
22364;DHT22;11349;53.412;-1.328;2022-11-20T06:03:36;8.60;99.90
22364;DHT22;11349;53.412;-1.328;2022-11-20T06:06:04;8.70;99.90
22364;DHT22;11349;53.412;-1.328;2022-11-20T06:08:32;8.50;99.90
22364;DHT22;11349;53.412;-1.328;2022-11-20T06:10:58;8.30;99.90
22364;DHT22;11349;53.412;-1.328;2022-11-20T06:13:24;8.50;99.90
22364;DHT22;11349;53.412;-1.328;2022-11-20T06:15:53;8.70;99.90
22364;DHT22;11349;53.412;-1.328;2022-11-20T06:18:20;8.80;99.90
22364;DHT22;11349;53.412;-1.328;2022-11-20T06:20:46;8.90;99.90
22364;DHT22;11349;53.412;-1.328;2022-11-20T06:23:12;9.40;99.90
22364;DHT22;11349;53.412;-1.328;2022-11-20T06:25:39;9.90;99.90
22364;DHT22;11349;53.412;-1.328;2022-11-20T06:28:06;9.70;99.90
22364;DHT22;11349;53.412;-1.328;2022-11-20T06:30:31;9.60;99.90
22364;DHT22;11349;53.412;-1.328;2022-11-20T06:32:57;9.70;99.90
22364;DHT22;11349;53.412;-1.328;2022-11-20T06:35:23;9.60;99.90
22364;DHT22;11349;53.412;-1.328;2022-11-20T06:37:48;9.00;99.90
22364;DHT22;11349;53.412;-1.328;2022-11-20T06:40:14;9.20;99.90
22364;DHT22;11349;53.412;-1.328;2022-11-20T06:42:40;9.60;99.90
22364;DHT22;11349;53.412;-1.328;2022-11-20T06:45:06;9.70;99.90
22364;DHT22;11349;53.412;-1.328;2022-11-20T06:47:33;9.70;99.90
22364;DHT22;11349;53.412;-1.328;2022-11-20T06:49:59;10.20;99.90
22364;DHT22;11349;53.412;-1.328;2022-11-20T06:52:24;9.40;99.90
22364;DHT22;11349;53.412;-1.328;2022-11-20T06:54:50;9.50;99.90
22364;DHT22;11349;53.412;-1.328;2022-11-20T06:57:16;9.50;99.90
22364;DHT22;11349;53.412;-1.328;2022-11-20T06:59:42;9.50;99.90
22364;DHT22;11349;53.412;-1.328;2022-11-20T07:02:13;8.80;99.90
22364;DHT22;11349;53.412;-1.328;2022-11-20T07:04:39;8.10;99.90
22364;DHT22;11349;53.412;-1.328;2022-11-20T07:07:05;7.90;99.90
22364;DHT22;11349;53.412;-1.328;2022-11-20T07:09:31;7.60;99.90
22364;DHT22;11349;53.412;-1.328;2022-11-20T07:11:57;7.60;99.90
22364;DHT22;11349;53.412;-1.328;2022-11-20T07:14:23;7.40;99.90
22364;DHT22;11349;53.412;-1.328;2022-11-20T07:16:49;7.30;99.90
22364;DHT22;11349;53.412;-1.328;2022-11-20T07:19:15;7.30;99.90
22364;DHT22;11349;53.412;-1.328;2022-11-20T07:21:41;7.40;99.90
22364;DHT22;11349;53.412;-1.328;2022-11-20T07:24:06;7.40;99.90
22364;DHT22;11349;53.412;-1.328;2022-11-20T07:26:32;7.60;99.90
22364;DHT22;11349;53.412;-1.328;2022-11-20T07:28:58;7.50;99.90
22364;DHT22;11349;53.412;-1.328;2022-11-20T07:31:23;7.30;99.90
22364;DHT22;11349;53.412;-1.328;2022-11-20T07:33:49;7.40;99.90
22364;DHT22;11349;53.412;-1.328;2022-11-20T07:36:15;7.40;99.90
22364;DHT22;11349;53.412;-1.328;2022-11-20T07:38:41;7.30;99.90
22364;DHT22;11349;53.412;-1.328;2022-11-20T07:41:06;7.30;99.90
22364;DHT22;11349;53.412;-1.328;2022-11-20T07:43:32;7.30;99.90
22364;DHT22;11349;53.412;-1.328;2022-11-20T07:45:58;7.30;99.90
22364;DHT22;11349;53.412;-1.328;2022-11-20T07:48:25;7.30;99.90
22364;DHT22;11349;53.412;-1.328;2022-11-20T07:50:55;7.20;99.90
22364;DHT22;11349;53.412;-1.328;2022-11-20T07:53:20;7.10;99.90
22364;DHT22;11349;53.412;-1.328;2022-11-20T07:55:47;7.10;99.90
22364;DHT22;11349;53.412;-1.328;2022-11-20T07:58:13;7.20;99.90
22364;DHT22;11349;53.412;-1.328;2022-11-20T08:00:40;7.20;99.90
22364;DHT22;11349;53.412;-1.328;2022-11-20T08:03:07;7.20;99.90
22364;DHT22;11349;53.412;-1.328;2022-11-20T08:05:33;7.20;99.90
22364;DHT22;11349;53.412;-1.328;2022-11-20T08:07:58;7.20;99.90
22364;DHT22;11349;53.412;-1.328;2022-11-20T08:10:26;7.20;99.90
22364;DHT22;11349;53.412;-1.328;2022-11-20T08:12:52;7.20;99.90
22364;DHT22;11349;53.412;-1.328;2022-11-20T08:15:38;7.30;99.90
22364;DHT22;11349;53.412;-1.328;2022-11-20T08:18:07;7.40;99.90
22364;DHT22;11349;53.412;-1.328;2022-11-20T08:20:33;7.30;99.90
22364;DHT22;11349;53.412;-1.328;2022-11-20T08:23:01;7.30;99.90
22364;DHT22;11349;53.412;-1.328;2022-11-20T08:25:30;7.30;99.90
22364;DHT22;11349;53.412;-1.328;2022-11-20T08:28:00;7.20;99.90
22364;DHT22;11349;53.412;-1.328;2022-11-20T08:30:26;7.30;99.90
22364;DHT22;11349;53.412;-1.328;2022-11-20T08:32:52;7.40;99.90
22364;DHT22;11349;53.412;-1.328;2022-11-20T08:35:19;7.60;99.90
22364;DHT22;11349;53.412;-1.328;2022-11-20T08:37:48;7.60;99.90
22364;DHT22;11349;53.412;-1.328;2022-11-20T08:40:14;7.60;99.90
22364;DHT22;11349;53.412;-1.328;2022-11-20T08:42:49;7.60;99.90
22364;DHT22;11349;53.412;-1.328;2022-11-20T08:45:16;7.60;99.90
22364;DHT22;11349;53.412;-1.328;2022-11-20T08:47:42;7.80;99.90
22364;DHT22;11349;53.412;-1.328;2022-11-20T08:50:13;7.90;99.90
22364;DHT22;11349;53.412;-1.328;2022-11-20T08:52:39;8.00;99.90
22364;DHT22;11349;53.412;-1.328;2022-11-20T08:55:06;8.10;99.90
22364;DHT22;11349;53.412;-1.328;2022-11-20T08:57:35;8.10;99.90
22364;DHT22;11349;53.412;-1.328;2022-11-20T09:00:05;8.10;99.90
22364;DHT22;11349;53.412;-1.328;2022-11-20T09:02:31;8.00;99.90
22364;DHT22;11349;53.412;-1.328;2022-11-20T09:04:57;8.00;99.90
22364;DHT22;11349;53.412;-1.328;2022-11-20T09:07:23;8.00;99.90
22364;DHT22;11349;53.412;-1.328;2022-11-20T09:09:49;8.10;99.90
22364;DHT22;11349;53.412;-1.328;2022-11-20T09:12:15;8.10;99.90
22364;DHT22;11349;53.412;-1.328;2022-11-20T09:14:40;8.60;99.90
22364;DHT22;11349;53.412;-1.328;2022-11-20T09:17:06;8.80;99.90
22364;DHT22;11349;53.412;-1.328;2022-11-20T09:19:33;8.50;99.90
22364;DHT22;11349;53.412;-1.328;2022-11-20T09:21:59;8.60;99.90
22364;DHT22;11349;53.412;-1.328;2022-11-20T09:24:26;8.60;99.90
22364;DHT22;11349;53.412;-1.328;2022-11-20T09:26:52;8.40;99.90
22364;DHT22;11349;53.412;-1.328;2022-11-20T09:29:17;8.40;99.90
22364;DHT22;11349;53.412;-1.328;2022-11-20T09:31:44;8.30;99.90
22364;DHT22;11349;53.412;-1.328;2022-11-20T09:34:09;8.30;99.90
22364;DHT22;11349;53.412;-1.328;2022-11-20T09:36:37;8.20;99.90
22364;DHT22;11349;53.412;-1.328;2022-11-20T09:39:03;8.20;99.90
22364;DHT22;11349;53.412;-1.328;2022-11-20T09:41:55;8.20;99.90
22364;DHT22;11349;53.412;-1.328;2022-11-20T09:53:22;8.10;99.90
22364;DHT22;11349;53.412;-1.328;2022-11-20T09:55:54;8.20;99.90
22364;DHT22;11349;53.412;-1.328;2022-11-20T10:01:13;8.20;99.90
22364;DHT22;11349;53.412;-1.328;2022-11-20T10:06:39;8.30;99.90
22364;DHT22;11349;53.412;-1.328;2022-11-20T10:09:30;8.40;99.90
22364;DHT22;11349;53.412;-1.328;2022-11-20T10:25:44;8.40;99.90
22364;DHT22;11349;53.412;-1.328;2022-11-20T10:31:08;8.50;99.90
22364;DHT22;11349;53.412;-1.328;2022-11-20T10:33:41;8.60;99.90
22364;DHT22;11349;53.412;-1.328;2022-11-20T10:36:10;8.70;99.90
22364;DHT22;11349;53.412;-1.328;2022-11-20T10:38:44;8.70;99.90
22364;DHT22;11349;53.412;-1.328;2022-11-20T10:41:40;8.70;99.90
22364;DHT22;11349;53.412;-1.328;2022-11-20T10:44:19;8.80;99.90
22364;DHT22;11349;53.412;-1.328;2022-11-20T10:47:05;8.80;99.90
22364;DHT22;11349;53.412;-1.328;2022-11-20T10:49:35;8.90;99.90
22364;DHT22;11349;53.412;-1.328;2022-11-20T10:52:23;8.90;99.90
22364;DHT22;11349;53.412;-1.328;2022-11-20T11:00:24;9.00;99.90
22364;DHT22;11349;53.412;-1.328;2022-11-20T11:02:52;9.00;99.90
22364;DHT22;11349;53.412;-1.328;2022-11-20T11:08:00;9.10;99.90
22364;DHT22;11349;53.412;-1.328;2022-11-20T11:13:19;9.30;99.90
22364;DHT22;11349;53.412;-1.328;2022-11-20T11:15:48;9.40;99.90
22364;DHT22;11349;53.412;-1.328;2022-11-20T11:20:56;9.70;99.90
22364;DHT22;11349;53.412;-1.328;2022-11-20T11:23:42;9.40;99.90
22364;DHT22;11349;53.412;-1.328;2022-11-20T11:26:24;9.50;99.90
22364;DHT22;11349;53.412;-1.328;2022-11-20T11:29:01;9.60;99.90
22364;DHT22;11349;53.412;-1.328;2022-11-20T11:31:33;9.70;99.90
22364;DHT22;11349;53.412;-1.328;2022-11-20T11:34:13;9.50;99.90
22364;DHT22;11349;53.412;-1.328;2022-11-20T11:36:39;9.40;99.90
22364;DHT22;11349;53.412;-1.328;2022-11-20T11:39:11;9.40;99.90
22364;DHT22;11349;53.412;-1.328;2022-11-20T11:41:40;9.30;99.90
22364;DHT22;11349;53.412;-1.328;2022-11-20T11:44:28;9.30;99.90
22364;DHT22;11349;53.412;-1.328;2022-11-20T11:47:37;9.40;99.90
22364;DHT22;11349;53.412;-1.328;2022-11-20T12:00:27;9.30;99.90
22364;DHT22;11349;53.412;-1.328;2022-11-20T12:03:13;9.20;99.90
22364;DHT22;11349;53.412;-1.328;2022-11-20T12:05:47;9.30;99.90
22364;DHT22;11349;53.412;-1.328;2022-11-20T12:10:56;9.30;99.90
22364;DHT22;11349;53.412;-1.328;2022-11-20T12:16:36;9.40;99.90
22364;DHT22;11349;53.412;-1.328;2022-11-20T12:19:09;9.40;99.90
22364;DHT22;11349;53.412;-1.328;2022-11-20T12:24:32;9.40;99.90
22364;DHT22;11349;53.412;-1.328;2022-11-20T12:30:19;9.40;99.90
22364;DHT22;11349;53.412;-1.328;2022-11-20T12:38:39;9.40;99.90
22364;DHT22;11349;53.412;-1.328;2022-11-20T12:47:56;9.40;99.90
22364;DHT22;11349;53.412;-1.328;2022-11-20T13:01:56;9.50;99.90
22364;DHT22;11349;53.412;-1.328;2022-11-20T13:07:12;9.90;99.90
22364;DHT22;11349;53.412;-1.328;2022-11-20T13:09:45;10.10;99.90
22364;DHT22;11349;53.412;-1.328;2022-11-20T13:12:26;10.10;99.90
22364;DHT22;11349;53.412;-1.328;2022-11-20T13:18:01;9.80;99.90
22364;DHT22;11349;53.412;-1.328;2022-11-20T13:20:29;9.80;99.90
22364;DHT22;11349;53.412;-1.328;2022-11-20T13:22:56;10.10;99.90
22364;DHT22;11349;53.412;-1.328;2022-11-20T13:25:36;10.30;99.90
22364;DHT22;11349;53.412;-1.328;2022-11-20T13:30:35;10.20;99.90
22364;DHT22;11349;53.412;-1.328;2022-11-20T13:33:21;10.20;99.90
22364;DHT22;11349;53.412;-1.328;2022-11-20T13:36:05;10.40;99.90
22364;DHT22;11349;53.412;-1.328;2022-11-20T13:38:46;10.20;99.90
22364;DHT22;11349;53.412;-1.328;2022-11-20T13:41:24;10.10;99.90
22364;DHT22;11349;53.412;-1.328;2022-11-20T13:44:37;10.00;99.90
22364;DHT22;11349;53.412;-1.328;2022-11-20T13:47:04;10.10;99.90
22364;DHT22;11349;53.412;-1.328;2022-11-20T13:49:42;10.20;99.90
22364;DHT22;11349;53.412;-1.328;2022-11-20T13:55:05;10.20;99.90
22364;DHT22;11349;53.412;-1.328;2022-11-20T14:00:27;10.00;99.90
22364;DHT22;11349;53.412;-1.328;2022-11-20T14:03:41;10.00;99.90
22364;DHT22;11349;53.412;-1.328;2022-11-20T14:05:52;10.10;99.90
22364;DHT22;11349;53.412;-1.328;2022-11-20T14:08:39;10.10;99.90
22364;DHT22;11349;53.412;-1.328;2022-11-20T14:13:58;10.90;99.90
22364;DHT22;11349;53.412;-1.328;2022-11-20T14:16:26;10.60;99.90
22364;DHT22;11349;53.412;-1.328;2022-11-20T14:18:52;11.00;99.90
22364;DHT22;11349;53.412;-1.328;2022-11-20T14:21:29;10.50;99.90
22364;DHT22;11349;53.412;-1.328;2022-11-20T14:24:22;11.00;99.90
22364;DHT22;11349;53.412;-1.328;2022-11-20T14:26:49;11.20;99.90
22364;DHT22;11349;53.412;-1.328;2022-11-20T14:29:19;11.50;99.90
22364;DHT22;11349;53.412;-1.328;2022-11-20T14:31:47;11.60;99.90
22364;DHT22;11349;53.412;-1.328;2022-11-20T14:34:22;11.00;99.90
22364;DHT22;11349;53.412;-1.328;2022-11-20T14:36:55;10.80;99.90
22364;DHT22;11349;53.412;-1.328;2022-11-20T14:39:28;10.60;99.90
22364;DHT22;11349;53.412;-1.328;2022-11-20T14:41:55;10.20;99.90
22364;DHT22;11349;53.412;-1.328;2022-11-20T14:44:33;10.10;99.90
22364;DHT22;11349;53.412;-1.328;2022-11-20T14:47:02;10.00;99.90
22364;DHT22;11349;53.412;-1.328;2022-11-20T14:49:30;10.00;99.90
22364;DHT22;11349;53.412;-1.328;2022-11-20T14:52:02;9.90;99.90
22364;DHT22;11349;53.412;-1.328;2022-11-20T14:54:28;10.40;99.90
22364;DHT22;11349;53.412;-1.328;2022-11-20T14:56:56;10.60;99.90
22364;DHT22;11349;53.412;-1.328;2022-11-20T14:59:33;10.30;99.90
22364;DHT22;11349;53.412;-1.328;2022-11-20T15:02:00;10.30;99.90
22364;DHT22;11349;53.412;-1.328;2022-11-20T15:04:26;9.90;99.90
22364;DHT22;11349;53.412;-1.328;2022-11-20T15:06:55;9.90;99.90
22364;DHT22;11349;53.412;-1.328;2022-11-20T15:09:22;9.70;99.90
22364;DHT22;11349;53.412;-1.328;2022-11-20T15:12:06;9.80;99.90
22364;DHT22;11349;53.412;-1.328;2022-11-20T15:14:31;10.10;99.90
22364;DHT22;11349;53.412;-1.328;2022-11-20T15:17:00;9.80;99.90
22364;DHT22;11349;53.412;-1.328;2022-11-20T15:19:26;10.20;99.90
22364;DHT22;11349;53.412;-1.328;2022-11-20T15:21:53;9.90;99.90
22364;DHT22;11349;53.412;-1.328;2022-11-20T15:24:19;10.10;99.90
22364;DHT22;11349;53.412;-1.328;2022-11-20T15:26:45;10.00;99.90
22364;DHT22;11349;53.412;-1.328;2022-11-20T15:29:13;10.00;99.90
22364;DHT22;11349;53.412;-1.328;2022-11-20T15:31:39;9.90;99.90
22364;DHT22;11349;53.412;-1.328;2022-11-20T15:34:14;9.80;99.90
22364;DHT22;11349;53.412;-1.328;2022-11-20T15:36:41;9.70;99.90
22364;DHT22;11349;53.412;-1.328;2022-11-20T15:39:08;9.70;99.90
22364;DHT22;11349;53.412;-1.328;2022-11-20T15:41:35;9.60;99.90
22364;DHT22;11349;53.412;-1.328;2022-11-20T15:44:01;9.50;99.90
22364;DHT22;11349;53.412;-1.328;2022-11-20T15:46:30;9.30;99.90
22364;DHT22;11349;53.412;-1.328;2022-11-20T15:49:02;9.30;99.90
22364;DHT22;11349;53.412;-1.328;2022-11-20T15:51:34;9.40;99.90
22364;DHT22;11349;53.412;-1.328;2022-11-20T15:54:00;9.70;99.90
22364;DHT22;11349;53.412;-1.328;2022-11-20T15:56:27;10.20;99.90
22364;DHT22;11349;53.412;-1.328;2022-11-20T15:58:53;10.00;99.90
22364;DHT22;11349;53.412;-1.328;2022-11-20T16:01:21;10.10;99.90
22364;DHT22;11349;53.412;-1.328;2022-11-20T16:03:47;9.80;99.90
22364;DHT22;11349;53.412;-1.328;2022-11-20T16:06:13;10.10;99.90
22364;DHT22;11349;53.412;-1.328;2022-11-20T16:08:39;10.20;99.90
22364;DHT22;11349;53.412;-1.328;2022-11-20T16:11:05;10.70;99.90
22364;DHT22;11349;53.412;-1.328;2022-11-20T16:13:31;10.10;99.90
22364;DHT22;11349;53.412;-1.328;2022-11-20T16:16:21;9.80;99.90
22364;DHT22;11349;53.412;-1.328;2022-11-20T16:18:48;9.60;99.90
22364;DHT22;11349;53.412;-1.328;2022-11-20T16:21:14;9.40;99.90
22364;DHT22;11349;53.412;-1.328;2022-11-20T16:23:41;9.30;99.90
22364;DHT22;11349;53.412;-1.328;2022-11-20T16:26:15;9.10;99.90
22364;DHT22;11349;53.412;-1.328;2022-11-20T16:28:49;9.10;99.90
22364;DHT22;11349;53.412;-1.328;2022-11-20T16:31:17;8.90;99.90
22364;DHT22;11349;53.412;-1.328;2022-11-20T16:33:49;8.80;99.90
22364;DHT22;11349;53.412;-1.328;2022-11-20T16:36:15;8.80;99.90
22364;DHT22;11349;53.412;-1.328;2022-11-20T16:38:41;8.70;99.90
22364;DHT22;11349;53.412;-1.328;2022-11-20T16:41:08;8.80;99.90
22364;DHT22;11349;53.412;-1.328;2022-11-20T16:43:47;8.70;99.90
22364;DHT22;11349;53.412;-1.328;2022-11-20T16:46:14;8.70;99.90
22364;DHT22;11349;53.412;-1.328;2022-11-20T16:48:40;8.60;99.90
22364;DHT22;11349;53.412;-1.328;2022-11-20T16:51:10;8.40;99.90
22364;DHT22;11349;53.412;-1.328;2022-11-20T16:53:36;8.20;99.90
22364;DHT22;11349;53.412;-1.328;2022-11-20T16:56:28;8.00;99.90
22364;DHT22;11349;53.412;-1.328;2022-11-20T16:58:56;8.00;99.90
22364;DHT22;11349;53.412;-1.328;2022-11-20T17:01:26;7.90;99.90
22364;DHT22;11349;53.412;-1.328;2022-11-20T17:04:04;7.90;99.90
22364;DHT22;11349;53.412;-1.328;2022-11-20T17:06:32;7.90;99.90
22364;DHT22;11349;53.412;-1.328;2022-11-20T17:08:58;7.90;99.90
22364;DHT22;11349;53.412;-1.328;2022-11-20T17:11:25;7.80;99.90
22364;DHT22;11349;53.412;-1.328;2022-11-20T17:13:53;7.80;99.90
22364;DHT22;11349;53.412;-1.328;2022-11-20T17:16:21;7.60;99.90
22364;DHT22;11349;53.412;-1.328;2022-11-20T17:18:48;7.60;99.90
22364;DHT22;11349;53.412;-1.328;2022-11-20T17:21:18;7.60;99.90
22364;DHT22;11349;53.412;-1.328;2022-11-20T17:23:45;7.90;99.90
22364;DHT22;11349;53.412;-1.328;2022-11-20T17:26:13;7.60;99.90
22364;DHT22;11349;53.412;-1.328;2022-11-20T17:28:40;7.50;99.90
22364;DHT22;11349;53.412;-1.328;2022-11-20T17:31:11;7.30;99.90
22364;DHT22;11349;53.412;-1.328;2022-11-20T17:33:39;7.30;99.90
22364;DHT22;11349;53.412;-1.328;2022-11-20T17:36:06;7.30;99.90
22364;DHT22;11349;53.412;-1.328;2022-11-20T17:38:33;7.40;99.90
22364;DHT22;11349;53.412;-1.328;2022-11-20T17:41:07;7.30;99.90